sensor_id;sensor_type;location;lat;lon;timestamp;pressure;altitude;pressure_sealevel;temperature;humidity
62952;BME280;52163;52.212;-1.002;2022-09-02T00:00:56;100703.52;;;17.62;67.09
62952;BME280;52163;52.212;-1.002;2022-09-02T00:03:28;100701.33;;;17.60;67.23
62952;BME280;52163;52.212;-1.002;2022-09-02T00:05:55;100702.44;;;17.57;67.41
62952;BME280;52163;52.212;-1.002;2022-09-02T00:08:21;100699.63;;;17.55;67.59
62952;BME280;52163;52.212;-1.002;2022-09-02T00:10:48;100701.34;;;17.55;67.69
62952;BME280;52163;52.212;-1.002;2022-09-02T00:13:15;100702.24;;;17.57;67.81
62952;BME280;52163;52.212;-1.002;2022-09-02T00:15:41;100700.09;;;17.60;67.90
62952;BME280;52163;52.212;-1.002;2022-09-02T00:18:07;100698.54;;;17.63;67.91
62952;BME280;52163;52.212;-1.002;2022-09-02T00:20:37;100695.08;;;17.64;68.00
62952;BME280;52163;52.212;-1.002;2022-09-02T00:23:03;100695.42;;;17.62;68.12
62952;BME280;52163;52.212;-1.002;2022-09-02T00:25:28;100693.46;;;17.60;68.22
62952;BME280;52163;52.212;-1.002;2022-09-02T00:27:54;100691.49;;;17.58;68.38
62952;BME280;52163;52.212;-1.002;2022-09-02T00:30:20;100688.48;;;17.58;68.33
62952;BME280;52163;52.212;-1.002;2022-09-02T00:32:45;100687.97;;;17.55;68.46
62952;BME280;52163;52.212;-1.002;2022-09-02T00:35:11;100685.69;;;17.53;68.56
62952;BME280;52163;52.212;-1.002;2022-09-02T00:37:37;100686.02;;;17.53;68.75
62952;BME280;52163;52.212;-1.002;2022-09-02T00:40:04;100680.70;;;17.51;68.90
62952;BME280;52163;52.212;-1.002;2022-09-02T00:42:31;100677.54;;;17.50;68.94
62952;BME280;52163;52.212;-1.002;2022-09-02T00:44:57;100677.51;;;17.48;69.08
62952;BME280;52163;52.212;-1.002;2022-09-02T00:47:22;100672.96;;;17.47;69.13
62952;BME280;52163;52.212;-1.002;2022-09-02T00:49:50;100669.20;;;17.43;69.29
62952;BME280;52163;52.212;-1.002;2022-09-02T00:52:29;100664.55;;;17.39;69.52
62952;BME280;52163;52.212;-1.002;2022-09-02T00:54:59;100665.01;;;17.36;69.63
62952;BME280;52163;52.212;-1.002;2022-09-02T00:57:30;100661.73;;;17.34;69.77
62952;BME280;52163;52.212;-1.002;2022-09-02T01:02:32;100656.33;;;17.33;69.97
62952;BME280;52163;52.212;-1.002;2022-09-02T01:04:58;100655.04;;;17.31;70.09
62952;BME280;52163;52.212;-1.002;2022-09-02T01:07:27;100652.05;;;17.29;70.12
62952;BME280;52163;52.212;-1.002;2022-09-02T01:09:55;100643.79;;;17.25;70.24
62952;BME280;52163;52.212;-1.002;2022-09-02T01:12:21;100642.86;;;17.22;70.23
62952;BME280;52163;52.212;-1.002;2022-09-02T01:14:47;100640.20;;;17.18;70.31
62952;BME280;52163;52.212;-1.002;2022-09-02T01:17:13;100640.73;;;17.13;70.52
62952;BME280;52163;52.212;-1.002;2022-09-02T01:19:47;100636.11;;;17.10;70.66
62952;BME280;52163;52.212;-1.002;2022-09-02T01:22:24;100635.05;;;17.08;70.82
62952;BME280;52163;52.212;-1.002;2022-09-02T01:24:50;100632.52;;;17.09;70.95
62952;BME280;52163;52.212;-1.002;2022-09-02T01:27:17;100629.63;;;17.07;71.06
62952;BME280;52163;52.212;-1.002;2022-09-02T01:29:44;100628.01;;;17.07;71.28
62952;BME280;52163;52.212;-1.002;2022-09-02T01:32:10;100623.69;;;17.07;71.25
62952;BME280;52163;52.212;-1.002;2022-09-02T01:34:36;100621.84;;;17.06;71.32
62952;BME280;52163;52.212;-1.002;2022-09-02T01:37:02;100619.82;;;17.05;71.43
62952;BME280;52163;52.212;-1.002;2022-09-02T01:39:28;100617.94;;;17.06;71.67
62952;BME280;52163;52.212;-1.002;2022-09-02T01:41:53;100619.81;;;17.09;71.70
62952;BME280;52163;52.212;-1.002;2022-09-02T01:44:20;100620.18;;;17.11;71.78
62952;BME280;52163;52.212;-1.002;2022-09-02T01:46:45;100624.73;;;17.12;71.93
62952;BME280;52163;52.212;-1.002;2022-09-02T01:49:11;100622.77;;;17.17;71.94
62952;BME280;52163;52.212;-1.002;2022-09-02T01:51:37;100620.87;;;17.20;71.92
62952;BME280;52163;52.212;-1.002;2022-09-02T01:54:02;100619.40;;;17.20;71.92
62952;BME280;52163;52.212;-1.002;2022-09-02T01:56:28;100619.95;;;17.18;71.95
62952;BME280;52163;52.212;-1.002;2022-09-02T01:58:54;100621.75;;;17.18;72.03
62952;BME280;52163;52.212;-1.002;2022-09-02T02:01:19;100617.05;;;17.17;72.13
62952;BME280;52163;52.212;-1.002;2022-09-02T02:03:45;100619.58;;;17.19;72.14
62952;BME280;52163;52.212;-1.002;2022-09-02T02:06:13;100619.99;;;17.20;72.23
62952;BME280;52163;52.212;-1.002;2022-09-02T02:08:41;100615.80;;;17.21;72.29
62952;BME280;52163;52.212;-1.002;2022-09-02T02:11:07;100616.88;;;17.23;72.30
62952;BME280;52163;52.212;-1.002;2022-09-02T02:13:33;100613.73;;;17.24;72.09
62952;BME280;52163;52.212;-1.002;2022-09-02T02:15:59;100612.79;;;17.22;72.25
62952;BME280;52163;52.212;-1.002;2022-09-02T02:18:24;100611.41;;;17.22;72.29
62952;BME280;52163;52.212;-1.002;2022-09-02T02:20:49;100609.00;;;17.21;72.28
62952;BME280;52163;52.212;-1.002;2022-09-02T02:23:15;100606.93;;;17.18;72.32
62952;BME280;52163;52.212;-1.002;2022-09-02T02:25:42;100605.65;;;17.14;72.48
62952;BME280;52163;52.212;-1.002;2022-09-02T02:28:07;100602.72;;;17.13;72.64
62952;BME280;52163;52.212;-1.002;2022-09-02T02:30:34;100594.23;;;17.14;72.75
62952;BME280;52163;52.212;-1.002;2022-09-02T02:33:00;100596.77;;;17.18;72.73
62952;BME280;52163;52.212;-1.002;2022-09-02T02:35:25;100595.91;;;17.22;72.58
62952;BME280;52163;52.212;-1.002;2022-09-02T02:37:51;100593.25;;;17.21;72.42
62952;BME280;52163;52.212;-1.002;2022-09-02T02:40:20;100589.23;;;17.20;72.49
62952;BME280;52163;52.212;-1.002;2022-09-02T02:42:47;100581.18;;;17.19;72.47
62952;BME280;52163;52.212;-1.002;2022-09-02T02:45:13;100580.89;;;17.14;72.44
62952;BME280;52163;52.212;-1.002;2022-09-02T02:47:40;100573.88;;;17.08;72.65
62952;BME280;52163;52.212;-1.002;2022-09-02T02:50:09;100571.67;;;17.05;72.74
62952;BME280;52163;52.212;-1.002;2022-09-02T02:52:37;100567.31;;;17.01;72.90
62952;BME280;52163;52.212;-1.002;2022-09-02T02:55:04;100562.75;;;17.01;72.98
62952;BME280;52163;52.212;-1.002;2022-09-02T02:57:32;100564.34;;;16.98;72.97
62952;BME280;52163;52.212;-1.002;2022-09-02T03:00:03;100557.66;;;16.95;73.08
62952;BME280;52163;52.212;-1.002;2022-09-02T03:02:29;100554.63;;;16.91;73.26
62952;BME280;52163;52.212;-1.002;2022-09-02T03:04:56;100549.78;;;16.87;73.38
62952;BME280;52163;52.212;-1.002;2022-09-02T03:07:22;100546.18;;;16.83;73.49
62952;BME280;52163;52.212;-1.002;2022-09-02T03:09:47;100541.41;;;16.78;73.60
62952;BME280;52163;52.212;-1.002;2022-09-02T03:12:13;100537.44;;;16.75;73.68
62952;BME280;52163;52.212;-1.002;2022-09-02T03:14:41;100535.29;;;16.73;73.75
62952;BME280;52163;52.212;-1.002;2022-09-02T03:17:06;100532.41;;;16.71;73.93
62952;BME280;52163;52.212;-1.002;2022-09-02T03:19:32;100530.74;;;16.68;73.99
62952;BME280;52163;52.212;-1.002;2022-09-02T03:21:57;100526.70;;;16.63;74.16
62952;BME280;52163;52.212;-1.002;2022-09-02T03:24:23;100526.93;;;16.60;74.31
62952;BME280;52163;52.212;-1.002;2022-09-02T03:26:48;100526.04;;;16.56;74.40
62952;BME280;52163;52.212;-1.002;2022-09-02T03:29:14;100527.61;;;16.52;74.69
62952;BME280;52163;52.212;-1.002;2022-09-02T03:31:39;100522.71;;;16.46;74.71
62952;BME280;52163;52.212;-1.002;2022-09-02T03:34:05;100522.19;;;16.42;74.76
62952;BME280;52163;52.212;-1.002;2022-09-02T03:36:34;100523.48;;;16.39;74.96
62952;BME280;52163;52.212;-1.002;2022-09-02T03:39:01;100524.66;;;16.38;75.28
62952;BME280;52163;52.212;-1.002;2022-09-02T03:41:27;100525.02;;;16.36;75.26
62952;BME280;52163;52.212;-1.002;2022-09-02T03:43:53;100522.84;;;16.36;75.36
62952;BME280;52163;52.212;-1.002;2022-09-02T03:46:18;100526.45;;;16.38;75.34
62952;BME280;52163;52.212;-1.002;2022-09-02T03:48:44;100526.25;;;16.36;75.37
62952;BME280;52163;52.212;-1.002;2022-09-02T03:51:10;100524.36;;;16.34;75.51
62952;BME280;52163;52.212;-1.002;2022-09-02T03:53:36;100525.63;;;16.33;75.52
62952;BME280;52163;52.212;-1.002;2022-09-02T03:56:12;100519.73;;;16.33;75.47
62952;BME280;52163;52.212;-1.002;2022-09-02T03:58:41;100521.75;;;16.35;75.50
62952;BME280;52163;52.212;-1.002;2022-09-02T04:01:12;100521.05;;;16.37;75.51
62952;BME280;52163;52.212;-1.002;2022-09-02T04:03:38;100519.96;;;16.39;75.56
62952;BME280;52163;52.212;-1.002;2022-09-02T04:06:04;100520.78;;;16.42;75.63
62952;BME280;52163;52.212;-1.002;2022-09-02T04:08:30;100515.31;;;16.46;75.54
62952;BME280;52163;52.212;-1.002;2022-09-02T04:10:55;100518.60;;;16.49;75.36
62952;BME280;52163;52.212;-1.002;2022-09-02T04:13:21;100515.52;;;16.47;75.19
62952;BME280;52163;52.212;-1.002;2022-09-02T04:15:47;100516.52;;;16.44;75.37
62952;BME280;52163;52.212;-1.002;2022-09-02T04:18:15;100514.46;;;16.43;75.29
62952;BME280;52163;52.212;-1.002;2022-09-02T04:20:42;100515.80;;;16.42;75.28
62952;BME280;52163;52.212;-1.002;2022-09-02T04:23:08;100509.90;;;16.43;75.40
62952;BME280;52163;52.212;-1.002;2022-09-02T04:25:39;100513.17;;;16.41;75.47
62952;BME280;52163;52.212;-1.002;2022-09-02T04:28:05;100513.91;;;16.41;75.53
62952;BME280;52163;52.212;-1.002;2022-09-02T04:30:31;100511.10;;;16.43;75.56
62952;BME280;52163;52.212;-1.002;2022-09-02T04:32:56;100508.39;;;16.41;75.43
62952;BME280;52163;52.212;-1.002;2022-09-02T04:35:22;100508.54;;;16.37;75.50
62952;BME280;52163;52.212;-1.002;2022-09-02T04:37:47;100508.17;;;16.33;75.65
62952;BME280;52163;52.212;-1.002;2022-09-02T04:40:13;100506.15;;;16.30;75.91
62952;BME280;52163;52.212;-1.002;2022-09-02T04:42:39;100506.92;;;16.29;75.99
62952;BME280;52163;52.212;-1.002;2022-09-02T04:45:06;100506.83;;;16.28;76.12
62952;BME280;52163;52.212;-1.002;2022-09-02T04:47:31;100499.83;;;16.27;76.25
62952;BME280;52163;52.212;-1.002;2022-09-02T04:49:57;100503.27;;;16.28;76.43
62952;BME280;52163;52.212;-1.002;2022-09-02T04:52:22;100501.41;;;16.27;76.37
62952;BME280;52163;52.212;-1.002;2022-09-02T04:54:48;100505.38;;;16.26;76.55
62952;BME280;52163;52.212;-1.002;2022-09-02T04:57:14;100504.85;;;16.26;76.66
62952;BME280;52163;52.212;-1.002;2022-09-02T04:59:40;100503.14;;;16.25;76.69
62952;BME280;52163;52.212;-1.002;2022-09-02T05:02:06;100501.80;;;16.26;76.68
62952;BME280;52163;52.212;-1.002;2022-09-02T05:04:33;100500.36;;;16.28;76.67
62952;BME280;52163;52.212;-1.002;2022-09-02T05:06:59;100497.34;;;16.30;76.79
62952;BME280;52163;52.212;-1.002;2022-09-02T05:09:28;100493.14;;;16.34;76.74
62952;BME280;52163;52.212;-1.002;2022-09-02T05:11:54;100494.27;;;16.37;76.60
62952;BME280;52163;52.212;-1.002;2022-09-02T05:14:24;100500.20;;;16.39;76.51
62952;BME280;52163;52.212;-1.002;2022-09-02T05:16:50;100500.58;;;16.39;76.60
62952;BME280;52163;52.212;-1.002;2022-09-02T05:19:21;100499.06;;;16.35;76.59
62952;BME280;52163;52.212;-1.002;2022-09-02T05:21:48;100497.60;;;16.33;76.77
62952;BME280;52163;52.212;-1.002;2022-09-02T05:24:16;100501.52;;;16.34;76.77
62952;BME280;52163;52.212;-1.002;2022-09-02T05:26:42;100501.05;;;16.33;76.91
62952;BME280;52163;52.212;-1.002;2022-09-02T05:29:09;100497.40;;;16.36;76.87
62952;BME280;52163;52.212;-1.002;2022-09-02T05:31:36;100498.38;;;16.39;76.86
62952;BME280;52163;52.212;-1.002;2022-09-02T05:34:01;100498.22;;;16.43;76.80
62952;BME280;52163;52.212;-1.002;2022-09-02T05:36:27;100494.98;;;16.46;76.67
62952;BME280;52163;52.212;-1.002;2022-09-02T05:38:53;100494.98;;;16.46;76.70
62952;BME280;52163;52.212;-1.002;2022-09-02T05:41:20;100495.80;;;16.46;76.62
62952;BME280;52163;52.212;-1.002;2022-09-02T05:43:54;100494.80;;;16.48;76.67
62952;BME280;52163;52.212;-1.002;2022-09-02T05:46:22;100499.52;;;16.51;76.71
62952;BME280;52163;52.212;-1.002;2022-09-02T05:48:48;100496.73;;;16.52;76.65
62952;BME280;52163;52.212;-1.002;2022-09-02T05:51:41;100496.52;;;16.57;76.67
62952;BME280;52163;52.212;-1.002;2022-09-02T05:54:10;100497.86;;;16.60;76.55
62952;BME280;52163;52.212;-1.002;2022-09-02T05:56:38;100495.27;;;16.64;76.56
62952;BME280;52163;52.212;-1.002;2022-09-02T05:59:04;100492.46;;;16.67;76.38
62952;BME280;52163;52.212;-1.002;2022-09-02T06:01:32;100485.09;;;16.67;76.25
62952;BME280;52163;52.212;-1.002;2022-09-02T06:03:57;100484.13;;;16.66;76.23
62952;BME280;52163;52.212;-1.002;2022-09-02T06:06:23;100484.78;;;16.67;76.28
62952;BME280;52163;52.212;-1.002;2022-09-02T06:08:49;100484.39;;;16.68;76.24
62952;BME280;52163;52.212;-1.002;2022-09-02T06:11:15;100488.41;;;16.66;76.25
62952;BME280;52163;52.212;-1.002;2022-09-02T06:13:42;100488.50;;;16.67;76.24
62952;BME280;52163;52.212;-1.002;2022-09-02T06:16:13;100489.27;;;16.69;76.18
62952;BME280;52163;52.212;-1.002;2022-09-02T06:18:39;100488.63;;;16.70;76.23
62952;BME280;52163;52.212;-1.002;2022-09-02T06:21:05;100491.41;;;16.71;76.28
62952;BME280;52163;52.212;-1.002;2022-09-02T06:23:33;100487.89;;;16.73;76.21
62952;BME280;52163;52.212;-1.002;2022-09-02T06:25:59;100484.92;;;16.74;76.13
62952;BME280;52163;52.212;-1.002;2022-09-02T06:28:24;100484.30;;;16.73;75.99
62952;BME280;52163;52.212;-1.002;2022-09-02T06:30:50;100482.05;;;16.72;76.22
62952;BME280;52163;52.212;-1.002;2022-09-02T06:33:15;100478.16;;;16.74;76.23
62952;BME280;52163;52.212;-1.002;2022-09-02T06:35:44;100478.05;;;16.75;76.43
62952;BME280;52163;52.212;-1.002;2022-09-02T06:38:11;100474.23;;;16.77;76.43
62952;BME280;52163;52.212;-1.002;2022-09-02T06:40:48;100474.81;;;16.75;76.46
62952;BME280;52163;52.212;-1.002;2022-09-02T06:43:15;100474.16;;;16.72;76.82
62952;BME280;52163;52.212;-1.002;2022-09-02T06:45:41;100474.67;;;16.71;76.94
62952;BME280;52163;52.212;-1.002;2022-09-02T06:48:07;100479.61;;;16.71;77.35
62952;BME280;52163;52.212;-1.002;2022-09-02T06:50:39;100482.83;;;16.71;77.33
62952;BME280;52163;52.212;-1.002;2022-09-02T06:53:05;100485.17;;;16.71;77.49
62952;BME280;52163;52.212;-1.002;2022-09-02T06:55:35;100482.55;;;16.72;77.70
62952;BME280;52163;52.212;-1.002;2022-09-02T06:58:00;100475.64;;;16.76;77.84
62952;BME280;52163;52.212;-1.002;2022-09-02T07:00:26;100475.45;;;16.76;77.68
62952;BME280;52163;52.212;-1.002;2022-09-02T07:02:51;100475.77;;;16.74;77.74
62952;BME280;52163;52.212;-1.002;2022-09-02T07:05:37;100469.40;;;16.72;77.91
62952;BME280;52163;52.212;-1.002;2022-09-02T07:08:03;100467.20;;;16.72;78.11
62952;BME280;52163;52.212;-1.002;2022-09-02T07:10:28;100467.81;;;16.76;78.39
62952;BME280;52163;52.212;-1.002;2022-09-02T07:12:54;100467.65;;;16.77;78.34
62952;BME280;52163;52.212;-1.002;2022-09-02T07:15:19;100468.86;;;16.78;78.41
62952;BME280;52163;52.212;-1.002;2022-09-02T07:17:45;100466.30;;;16.79;78.45
62952;BME280;52163;52.212;-1.002;2022-09-02T07:20:10;100462.36;;;16.79;78.55
62952;BME280;52163;52.212;-1.002;2022-09-02T07:22:37;100458.02;;;16.77;78.66
62952;BME280;52163;52.212;-1.002;2022-09-02T07:25:04;100457.78;;;16.76;78.63
62952;BME280;52163;52.212;-1.002;2022-09-02T07:27:29;100453.48;;;16.76;78.81
62952;BME280;52163;52.212;-1.002;2022-09-02T07:29:55;100449.03;;;16.78;78.96
62952;BME280;52163;52.212;-1.002;2022-09-02T07:32:21;100445.02;;;16.81;79.08
62952;BME280;52163;52.212;-1.002;2022-09-02T07:34:47;100446.41;;;16.86;79.19
62952;BME280;52163;52.212;-1.002;2022-09-02T07:37:12;100448.35;;;16.90;79.23
62952;BME280;52163;52.212;-1.002;2022-09-02T07:39:38;100446.24;;;16.94;79.25
62952;BME280;52163;52.212;-1.002;2022-09-02T07:42:04;100443.38;;;16.98;79.17
62952;BME280;52163;52.212;-1.002;2022-09-02T07:44:30;100440.49;;;17.03;79.15
62952;BME280;52163;52.212;-1.002;2022-09-02T07:46:56;100440.87;;;17.07;79.19
62952;BME280;52163;52.212;-1.002;2022-09-02T07:49:22;100440.38;;;17.10;79.17
62952;BME280;52163;52.212;-1.002;2022-09-02T07:51:49;100437.66;;;17.13;79.03
62952;BME280;52163;52.212;-1.002;2022-09-02T07:54:17;100438.31;;;17.14;79.00
62952;BME280;52163;52.212;-1.002;2022-09-02T07:56:43;100439.21;;;17.14;79.05
62952;BME280;52163;52.212;-1.002;2022-09-02T07:59:10;100437.50;;;17.17;79.18
62952;BME280;52163;52.212;-1.002;2022-09-02T08:01:36;100436.75;;;17.21;79.12
62952;BME280;52163;52.212;-1.002;2022-09-02T08:04:03;100437.25;;;17.23;79.21
62952;BME280;52163;52.212;-1.002;2022-09-02T08:06:29;100439.50;;;17.26;79.11
62952;BME280;52163;52.212;-1.002;2022-09-02T08:08:56;100434.23;;;17.29;79.20
62952;BME280;52163;52.212;-1.002;2022-09-02T08:11:22;100432.87;;;17.33;79.10
62952;BME280;52163;52.212;-1.002;2022-09-02T08:13:49;100431.94;;;17.33;79.06
62952;BME280;52163;52.212;-1.002;2022-09-02T08:16:15;100430.81;;;17.34;79.18
62952;BME280;52163;52.212;-1.002;2022-09-02T08:18:40;100425.34;;;17.33;79.27
62952;BME280;52163;52.212;-1.002;2022-09-02T08:21:06;100425.80;;;17.36;79.58
62952;BME280;52163;52.212;-1.002;2022-09-02T08:23:31;100423.02;;;17.41;79.64
62952;BME280;52163;52.212;-1.002;2022-09-02T08:26:01;100419.18;;;17.44;79.74
62952;BME280;52163;52.212;-1.002;2022-09-02T08:28:28;100414.70;;;17.46;79.48
62952;BME280;52163;52.212;-1.002;2022-09-02T08:30:54;100413.06;;;17.46;79.52
62952;BME280;52163;52.212;-1.002;2022-09-02T08:33:22;100413.41;;;17.47;79.64
62952;BME280;52163;52.212;-1.002;2022-09-02T08:35:47;100408.84;;;17.50;79.80
62952;BME280;52163;52.212;-1.002;2022-09-02T08:38:12;100407.96;;;17.55;79.75
62952;BME280;52163;52.212;-1.002;2022-09-02T08:40:40;100406.08;;;17.59;79.53
62952;BME280;52163;52.212;-1.002;2022-09-02T08:43:38;100411.95;;;17.61;79.42
62952;BME280;52163;52.212;-1.002;2022-09-02T08:46:11;100417.17;;;17.62;79.29
62952;BME280;52163;52.212;-1.002;2022-09-02T08:51:30;100416.91;;;17.73;79.92
62952;BME280;52163;52.212;-1.002;2022-09-02T08:54:05;100415.85;;;17.84;80.03
62952;BME280;52163;52.212;-1.002;2022-09-02T08:56:32;100410.79;;;17.99;80.21
62952;BME280;52163;52.212;-1.002;2022-09-02T08:58:57;100407.86;;;18.11;79.77
62952;BME280;52163;52.212;-1.002;2022-09-02T09:01:58;100400.42;;;18.22;79.38
62952;BME280;52163;52.212;-1.002;2022-09-02T09:10:13;100399.69;;;18.38;78.46
62952;BME280;52163;52.212;-1.002;2022-09-02T09:13:14;100403.40;;;18.40;78.37
62952;BME280;52163;52.212;-1.002;2022-09-02T09:16:03;100400.38;;;18.45;78.35
62952;BME280;52163;52.212;-1.002;2022-09-02T09:18:43;100400.29;;;18.46;78.03
62952;BME280;52163;52.212;-1.002;2022-09-02T09:21:10;100397.89;;;18.43;78.02
62952;BME280;52163;52.212;-1.002;2022-09-02T09:23:39;100396.51;;;18.41;78.18
62952;BME280;52163;52.212;-1.002;2022-09-02T09:26:13;100395.77;;;18.41;78.36
62952;BME280;52163;52.212;-1.002;2022-09-02T09:28:46;100395.85;;;18.42;78.51
62952;BME280;52163;52.212;-1.002;2022-09-02T09:31:15;100396.70;;;18.42;78.31
62952;BME280;52163;52.212;-1.002;2022-09-02T09:36:54;100393.42;;;18.41;78.10
62952;BME280;52163;52.212;-1.002;2022-09-02T09:41:59;100395.15;;;18.50;78.37
62952;BME280;52163;52.212;-1.002;2022-09-02T09:47:00;100393.30;;;18.60;78.23
62952;BME280;52163;52.212;-1.002;2022-09-02T09:49:31;100390.95;;;18.64;78.29
62952;BME280;52163;52.212;-1.002;2022-09-02T09:52:00;100387.08;;;18.69;78.30
62952;BME280;52163;52.212;-1.002;2022-09-02T09:54:26;100390.21;;;18.68;77.90
62952;BME280;52163;52.212;-1.002;2022-09-02T09:56:53;100390.67;;;18.67;78.02
62952;BME280;52163;52.212;-1.002;2022-09-02T10:01:57;100388.20;;;18.65;77.78
62952;BME280;52163;52.212;-1.002;2022-09-02T10:04:30;100385.28;;;18.62;77.90
62952;BME280;52163;52.212;-1.002;2022-09-02T10:06:57;100383.39;;;18.61;77.94
62952;BME280;52163;52.212;-1.002;2022-09-02T10:09:30;100383.15;;;18.63;78.07
62952;BME280;52163;52.212;-1.002;2022-09-02T10:12:07;100378.66;;;18.63;77.91
62952;BME280;52163;52.212;-1.002;2022-09-02T10:14:42;100374.40;;;18.61;78.14
62952;BME280;52163;52.212;-1.002;2022-09-02T10:17:26;100375.06;;;18.60;78.51
62952;BME280;52163;52.212;-1.002;2022-09-02T10:20:05;100373.17;;;18.59;78.74
62952;BME280;52163;52.212;-1.002;2022-09-02T10:33:21;100364.44;;;18.97;78.29
62952;BME280;52163;52.212;-1.002;2022-09-02T10:35:57;100364.48;;;19.03;77.94
62952;BME280;52163;52.212;-1.002;2022-09-02T10:38:39;100360.91;;;19.12;77.95
62952;BME280;52163;52.212;-1.002;2022-09-02T10:44:21;100355.85;;;19.27;77.36
62952;BME280;52163;52.212;-1.002;2022-09-02T10:46:59;100348.27;;;19.38;77.37
62952;BME280;52163;52.212;-1.002;2022-09-02T10:52:12;100337.61;;;19.48;76.45
62952;BME280;52163;52.212;-1.002;2022-09-02T10:57:29;100339.06;;;19.54;75.96
62952;BME280;52163;52.212;-1.002;2022-09-02T11:00:22;100339.08;;;19.55;75.91
62952;BME280;52163;52.212;-1.002;2022-09-02T11:05:27;100329.81;;;19.60;75.98
62952;BME280;52163;52.212;-1.002;2022-09-02T11:08:04;100327.39;;;19.64;75.72
62952;BME280;52163;52.212;-1.002;2022-09-02T11:10:36;100321.13;;;19.63;75.43
62952;BME280;52163;52.212;-1.002;2022-09-02T11:13:13;100319.52;;;19.63;75.39
62952;BME280;52163;52.212;-1.002;2022-09-02T11:18:45;100314.83;;;19.77;75.30
62952;BME280;52163;52.212;-1.002;2022-09-02T11:21:28;100309.10;;;19.88;75.29
62952;BME280;52163;52.212;-1.002;2022-09-02T11:24:07;100310.91;;;20.05;75.22
62952;BME280;52163;52.212;-1.002;2022-09-02T11:26:48;100312.95;;;20.17;74.47
62952;BME280;52163;52.212;-1.002;2022-09-02T11:29:25;100313.98;;;20.22;74.07
62952;BME280;52163;52.212;-1.002;2022-09-02T11:32:24;100313.65;;;20.31;74.01
62952;BME280;52163;52.212;-1.002;2022-09-02T11:34:54;100306.39;;;20.42;73.58
62952;BME280;52163;52.212;-1.002;2022-09-02T11:40:30;100303.79;;;20.63;72.89
62952;BME280;52163;52.212;-1.002;2022-09-02T11:43:14;100300.29;;;20.78;72.48
62952;BME280;52163;52.212;-1.002;2022-09-02T11:54:11;100283.89;;;21.55;70.72
62952;BME280;52163;52.212;-1.002;2022-09-02T11:56:44;100280.29;;;21.70;70.07
62952;BME280;52163;52.212;-1.002;2022-09-02T11:59:22;100280.86;;;21.86;69.54
62952;BME280;52163;52.212;-1.002;2022-09-02T12:02:09;100276.61;;;22.00;69.03
62952;BME280;52163;52.212;-1.002;2022-09-02T12:04:35;100277.39;;;22.08;68.75
62952;BME280;52163;52.212;-1.002;2022-09-02T12:20:07;100253.48;;;22.36;67.55
62952;BME280;52163;52.212;-1.002;2022-09-02T12:22:39;100250.49;;;22.45;67.54
62952;BME280;52163;52.212;-1.002;2022-09-02T12:27:54;100246.95;;;22.62;66.91
62952;BME280;52163;52.212;-1.002;2022-09-02T12:31:10;100243.29;;;22.67;66.34
62952;BME280;52163;52.212;-1.002;2022-09-02T12:33:42;100245.13;;;22.70;65.86
62952;BME280;52163;52.212;-1.002;2022-09-02T12:42:01;100237.29;;;22.99;65.26
62952;BME280;52163;52.212;-1.002;2022-09-02T12:48:00;100231.98;;;23.19;64.69
62952;BME280;52163;52.212;-1.002;2022-09-02T12:50:49;100230.69;;;23.34;64.53
62952;BME280;52163;52.212;-1.002;2022-09-02T12:56:17;100225.34;;;23.59;63.45
62952;BME280;52163;52.212;-1.002;2022-09-02T12:58:54;100223.45;;;23.67;63.11
62952;BME280;52163;52.212;-1.002;2022-09-02T13:01:52;100220.08;;;23.70;62.15
62952;BME280;52163;52.212;-1.002;2022-09-02T13:04:49;100217.73;;;23.68;62.28
62952;BME280;52163;52.212;-1.002;2022-09-02T13:30:17;100189.84;;;23.58;62.14
62952;BME280;52163;52.212;-1.002;2022-09-02T13:32:44;100183.36;;;23.59;61.86
62952;BME280;52163;52.212;-1.002;2022-09-02T13:35:26;100179.86;;;23.58;61.59
62952;BME280;52163;52.212;-1.002;2022-09-02T13:37:57;100174.30;;;23.59;61.41
62952;BME280;52163;52.212;-1.002;2022-09-02T13:42:57;100157.11;;;23.78;61.31
62952;BME280;52163;52.212;-1.002;2022-09-02T13:45:25;100150.20;;;23.90;60.90
62952;BME280;52163;52.212;-1.002;2022-09-02T13:47:53;100147.70;;;23.97;60.22
62952;BME280;52163;52.212;-1.002;2022-09-02T13:50:22;100144.54;;;24.03;59.62
62952;BME280;52163;52.212;-1.002;2022-09-02T13:52:54;100139.30;;;24.06;59.21
62952;BME280;52163;52.212;-1.002;2022-09-02T13:55:21;100134.00;;;24.12;59.04
62952;BME280;52163;52.212;-1.002;2022-09-02T13:58:05;100132.85;;;24.17;58.74
62952;BME280;52163;52.212;-1.002;2022-09-02T14:00:36;100127.49;;;24.24;58.38
62952;BME280;52163;52.212;-1.002;2022-09-02T14:03:05;100124.95;;;24.27;57.72
62952;BME280;52163;52.212;-1.002;2022-09-02T14:05:32;100122.71;;;24.29;57.45
62952;BME280;52163;52.212;-1.002;2022-09-02T14:08:02;100118.80;;;24.33;56.85
62952;BME280;52163;52.212;-1.002;2022-09-02T14:10:31;100120.48;;;24.42;56.63
62952;BME280;52163;52.212;-1.002;2022-09-02T14:13:00;100115.77;;;24.46;56.01
62952;BME280;52163;52.212;-1.002;2022-09-02T14:15:30;100116.98;;;24.46;55.40
62952;BME280;52163;52.212;-1.002;2022-09-02T14:20:31;100115.22;;;24.50;54.99
62952;BME280;52163;52.212;-1.002;2022-09-02T14:22:58;100107.66;;;24.53;55.17
62952;BME280;52163;52.212;-1.002;2022-09-02T14:25:26;100103.29;;;24.62;55.40
62952;BME280;52163;52.212;-1.002;2022-09-02T14:27:54;100100.44;;;24.69;55.65
62952;BME280;52163;52.212;-1.002;2022-09-02T14:30:39;100099.38;;;24.74;54.70
62952;BME280;52163;52.212;-1.002;2022-09-02T14:38:34;100093.23;;;24.83;53.98
62952;BME280;52163;52.212;-1.002;2022-09-02T14:41:09;100090.64;;;24.82;54.16
62952;BME280;52163;52.212;-1.002;2022-09-02T14:43:54;100086.14;;;24.78;53.80
62952;BME280;52163;52.212;-1.002;2022-09-02T14:46:29;100078.19;;;24.71;53.77
62952;BME280;52163;52.212;-1.002;2022-09-02T14:49:03;100074.98;;;24.64;53.60
62952;BME280;52163;52.212;-1.002;2022-09-02T14:51:43;100072.39;;;24.58;53.48